This is the latest recevied weather packets stored in our database for station/object OSTR-WX. If no packets are shown the sender has not sent any weather packets the latest 10 day(s).
| Time | Temp. | Humidity | Pressure | Rain* | Wind** | Luminosity | Snow |
|---|---|---|---|---|---|---|---|
| 1777693215 | 2.22° C | 94% | 1027.7 hPa | - | - | - | - |
| 1777693210 | 2.22° C | 94% | 1027.7 hPa | - | - | - | - |
| 1777692253 | 2.22° C | 94% | 1027.7 hPa | - | - | - | - |
| 1777691302 | 2.22° C | 94% | 1027.6 hPa | - | - | - | - |
| 1777691296 | 2.22° C | 94% | 1027.6 hPa | - | - | - | - |
| 1777690345 | 2.22° C | 94% | 1027.6 hPa | - | - | - | - |
| 1777690339 | 2.22° C | 94% | 1027.6 hPa | - | - | - | - |
| 1777689382 | 2.22° C | 93% | 1027.6 hPa | - | - | - | - |
| 1777688433 | 2.78° C | 93% | 1027.6 hPa | - | - | - | - |
| 1777688427 | 2.78° C | 93% | 1027.6 hPa | - | - | - | - |
| 1777674076 | 5.56° C | 86% | 1027.3 hPa | - | - | - | - |
| 1777674070 | 5.56° C | 86% | 1027.3 hPa | - | - | - | - |
| 1777673113 | 6.11° C | 85% | 1027.2 hPa | - | - | - | - |
| 1777671207 | 6.67° C | 84% | 1027 hPa | - | - | - | - |
| 1777671201 | 6.67° C | 84% | 1027 hPa | - | - | - | - |
| 1777670242 | 7.22° C | 82% | 1026.9 hPa | - | - | - | - |
| 1777670242 | 7.22° C | 82% | 1026.9 hPa | - | - | - | - |
| 1777669285 | 7.78° C | 81% | 1026.9 hPa | - | - | - | - |
| 1777668328 | 8.33° C | 80% | 1026.7 hPa | - | - | - | - |
| 1777667371 | 8.33° C | 78% | 1026.7 hPa | - | - | - | - |
| 1777664500 | 10° C | 73% | 1026.5 hPa | - | - | - | - |
| 1777664500 | 10° C | 73% | 1026.5 hPa | - | - | - | - |
| 1777663546 | 10.56° C | 72% | 1026.2 hPa | - | - | - | - |
| 1777663543 | 10.56° C | 72% | 1026.2 hPa | - | - | - | - |
| 1777660678 | 13.33° C | 64% | 1025.6 hPa | - | - | - | - |
* Rain since midnight (hover to see other rain measurements)
** Current wind speed in m/s (hover to see current wind gust speed)